Timeline UpdatesTrip UpdatesNews PostsPvt Posts♥♥Travel TipsAdmin PostsConv PostsFollowed PostsChat RequestsBlog PostsPNR Posts

Disclaimer
Search
 
 
Fri Oct 31, 2014 15:23:50 ISTHomeTrainsΣChainsAtlasPNRForumGalleryNewsFAQTripsMembersLoginFeedback
No Recent News for this Train
Other Trains in the News **new
Latest...
running with Inspection Car is of NR [0611/A]; since 2 weeks
Wed Jul 23, 2014 (11:12AM)
⇐ Return Journey: Train# 13483

13484/Farakka Express (via Faizabad)

Time-Table HAS CHANGED.
Sep 03 2014 (1:27PM)
Change Departure Station:
Change Arrival Station:
Post a Train Travel TipPost a Train Travel Tip **new
Post a Comment/Question/Picture/VideoPost a Comment/Question/Picture/Video
Pantry/Catering
✓ Pantry Car Avbl
✓ Catering Avbl
RSA - Rake Sharing
13413/13414/04031/04032
Rake/Coach Composition
LOCO-SLR-UR-UR-S9-S8-S7-S6-S5-S4-S3-S2-S1-PC-B1-A1-UR-UR-UR-UR-UR-SLR-HPCV http://indiarailinfo.com/blog/post/1168926 by manu
Loco
DLI - LKO -> GZB[NR] WAP-5/7; LKO - MLDT ->...
Read more...
LKO[NR] WDM-3D/3A
News    PNR    Forum    Time-Table    Availability    Fare Chart    Map    Arr/Dep History    Trips    Gallery    ΣChains    X/O    Timeline    
Travel Time: 22h 57m    39 halts    Distance: 1059 km    Avg Speed: 46 km/hr
Type: Mail/Express
Zone: ER/Eastern
Departs @ 21:45 (Avg 1m late)
Platform# 7
S T TF 
Old Delhi Junction/DLI 
Arrives @ 20:42 +1 night (Avg 1h 10m late)
Platform# 2
 M W FS
Patna Junction/PNBE 

39 halts. 175 intermediate Stations between Old Delhi Junction and Patna Junction

Show ALL intermediate Stations  Show Old Time-Table

#TrkCodeStation NameX/OArrivesAvgDepartsAvgHaltPFDay#KmSpeedElevZoneAddress
1/==/DLIOld Delhi Junction (16)»  -21:50 21:45+1710.031219mNRNear Chandni Chowk Metro Station, Delhi NCT
2/==/GZBGhaziabad Junction (6)  22:26 22:24+222:28 22:26+22m2120.164217mNRGhaziabad, Uttar Pradesh
3/==/KRJKhurja Junction (4)  23:25+2823:28+323m--182.742199mNCRBulandshahr, Uttar Pradesh
4/==/ALJNAligarh Junction (4)  00:30+2000:35+235m22126.286192mNCRAligarh, Uttar Pradesh
5/==/HRSHathras Junction (3)X  00:56+3301:01+325m--2156.459183mNCRMahamaya Nagar(05722-242803), Uttar Pradesh
6/==/TDLTundla Junction (5)X  01:50+3101:58+338m32204.450167mNCRDistt.Firozabad, Uttar Pradesh
7/==/FZDFirozabad (4)X  02:18+3402:20+372m22220.963164mNCRFirozabad, Uttar Pradesh
8/==/SKBShikohabad Junction (4)X  02:39+3402:41+372m22240.885166mNCRDistrict Firozabad, Uttar Pradesh
9/==/ETWEtawah (5)X  03:20+4203:22+432m32296.265154mNCRDistt. Etawah, Uttar Pradesh
10/==/CNBKanpur Central (10)X  05:30+3605:45+3315m72435.547128mNCRKANPUR-208 001, Uttar Pradesh
11/==/ONUnnao Junction (5)  06:06 06:07+5406:08 06:09+552m--2453.046129mNRUnnao, Uttar Pradesh
12/==/LKOLucknow Charbagh NR (9)X  07:20+4407:45+4725m--2507.549 NR226004, Uttar Pradesh
13/==/BBKBarabanki Junction (4)  08:20+1:0608:22+1:082m--2536.152 NRPin-225001, Uttar Pradesh
14|--|DYDDaryabad  09:06+1:1209:07+1:131m--2574.169116mNRFaizabad Rd, Uttar Pradesh
15|--|RDLRudauli (2)  09:27+1:1609:28+1:161m--2597.272112mNRRudauli, Uttar Pradesh
16|--|SLWSohwal  09:47+1:1909:48+1:191m--2620.142107mNRFaizabad Rd, Uttar Pradesh
17|--|FDFaizabad Junction (5)X  10:10+1:1910:15+1:215m--2635.313104mNRFaizabad, Uttar Pradesh
18|--|ACNDAcharya Narendra Dev Nagar  10:25+1:2210:26+1:231m--2637.512104mNRFaizabad, Uttar Pradesh
19|--|AYAyodhya Junction (3)X  10:48+1:1010:49+1:111m12642.06698mNRAyodhya, Uttar Pradesh
20|--|GGJGoshainGanj (3)  11:18+1:1011:19+1:101m--2673.87498mNRGoshainganj, Uttar Pradesh
21|--|ABPAkbarpur Junction (2)  11:37+1:1511:39+1:162m--2696.07292mNRAkbarpur, Uttar Pradesh
22|--|MLPRMalipur (2)  11:55+1:2011:56+1:201m--2715.16292mNRMalipur, Uttar Pradesh
23|--|SHGShahganj Junction (4)X  12:20+1:2412:25 12:27+1:215 7m--2740.15390mNRShahganj, Uttar Pradesh
24|--|JNUJaunpur Junction (5)X  13:05+1:2013:07+1:242m12773.42383mNRJaunpur, Uttar Pradesh
25|--|ZBDZafarabad Junction (4)X  13:24+1:2013:25+1:211m--2779.83683mNRNational Highway 56, Uttar Pradesh
26/==/JLLJalalGanj (2)  13:45+1:1713:46+1:171m--2791.93487mNRJalalganj Railway Station, Uttar Pradesh
27/==/BSBVaranasi Junction (9)X  15:00 14:55+5615:15+5615 20m82831.01882mNRVaranasi 221002, Uttar Pradesh
28/==/MGSMughal Sarai Junction (8)  16:10+5116:25+5115m--2847.57483mECRDistt: Chandauli Pin 232101, Uttar Pradesh
29/==/ZNAZamania (2)X  17:01+1:0817:03+1:092m--2891.76777mECRGhazipur, Uttar Pradesh
30/==/DLNDildarnagar Junction (2)X  17:15+1:1017:17+1:102m--2905.25272mECRDildarnagar, Uttar Pradesh
31/==/BWHBhadaura (2)X17:26+1:1017:28+1:102m--2913.06169mECRGhazipur, Uttar Pradesh
32/==/GMRGahmar (2)X  17:36+1:0617:38+1:072m--2921.27968mECRDistt: Ghazipur, Uttar Pradesh
33/==/CSAChausa (2)O  17:45+1:1317:47+1:142m--2930.56068mECRState Highway 14, Bihar
34/==/BXRBuxar (3)X  17:58+1:0818:03+1:065m--2941.48967mECRBuxar, Bihar
35/==/DUREDumraon (3)  18:14+1:0818:16+1:092m--2957.78070mECRDumraon, Bihar
36/==/RPRRaghunathpur (4)X  18:28+1:1818:30+1:182m--2973.77469mECRRaghunathpur, Bihar
37/==/BEABihiya (3)  18:42+1:2318:44+1:232m--2988.57167mECRBehea, Bihar
38/==/ARAAra Junction (3)X  19:02+1:1419:07+1:165m--21009.98963mECRDistt: Bhojpur Ph 06182-233411, Bihar
39/==/BTABihta (2)X  19:22+1:3819:24+1:402m--21032.13462mECRDistt: Patna, Bihar
40/==/DNRDanapur (5)X  19:55+1:3520:05+1:3810m--21049.41558mECRKhagaul, Bihar
41/==/PNBEPatna Junction (10)•X  20:42+1:1020:52+1:1210m221058.82257mECRPatna 800001, Bihar
42/==/RJPBRajendra Nagar Bihar (4)  20:59+1:0821:01+1:082m--21061.43455mECRPatna 800001, Bihar
43/==/PNCPatna Saheb (3)X  21:14+1:2421:16+1:252m--21068.74159mECRPatna 800008, Bihar
44/==/FUTFatwa (6)  21:34+1:3421:36+1:372m--21080.95653mECRPatna, Bihar
45/==/BKPBakhtiyarpur Junction (5)O  22:01+1:3422:05+1:344m--21104.23751mECRPatna, Bihar
46/==/BARHBarh (3)  22:34+1:2722:36+1:272m--21122.37049mECRBarh, Bihar
47/==/MKAMokama Junction (4)  22:58+1:2723:03+1:255m--21148.17148mECRPatna, Bihar
48/==/BRYABarhiya (3)  23:18+1:3823:20+1:382m--21165.82247mECRBarahiya, Bihar
49/==/KIULKiul Junction (5)  00:05+1:1900:10+1:205m--31182.26653mECRDist. Lakhisarai, Bihar
50|==|AHAAbhaipur (3)  00:31+1:2800:33+1:282m--31205.26052mERAbhaipur, Bihar
51|=-|JMPJamalpur Junction (4)  00:55+1:3601:05+1:3910m131227.16159mERDist: Munger 06344-243101, Bihar
52|==|BUPBariarpur (3)  01:16+1:4701:18+1:462m--31238.25442mERMunger, Bihar
53|==|SGGSultanGanj (3)  01:38+1:4701:40+1:482m--31256.14742mERSultanganj, Bihar
54|==!BGPBhagalpur Junction (6)  02:12+1:2502:22+1:2910m--31281.15649mERBhagalpur, Bihar
55!==!SBOSabaur (3)  02:30+1:5202:32+1:562m--31288.66142mERSabour, Bihar
56!==!CLGKahalgaon (2)  02:54+2:0902:56+2:112m131311.23744mERBhagalpur, Bihar
57!==!PPTPirpainti (2)  03:29+2:0703:31+2:082m--31331.52653mERBhagalpur, Bihar
58!==!SBGSahibganj Junction (3)X  04:25+1:5104:33+2:008m131355.18138mERSahibganj, Jharkhand
59!==|TPHTinpahar Junction (3)X  05:00 05:01+2:2705:02 05:03+2:282m231392.83545mERBamangawan, Jharkhand
60|==|BHWBarharwa Junction (3)  05:32+2:1805:36+2:204m231409.54036mERBarharwa, Jharkhand
61%==%NFKNew Farakka Junction (3)X  06:03+2:2306:08+2:185m231427.52932mERDist - Murshidabad, West Bengal
62%==%MLDTMalda Town (5)  07:20+2:36---31462.6-30mERDist - Malda, West Bengal
Scroll to Top
Scroll to Bottom